sensor_id;sensor_type;location;lat;lon;timestamp;P1;durP1;ratioP1;P2;durP2;ratioP2
44048;SDS011;29717;47.028;15.470;2023-08-17T00:01:30;13.07;;;11.25;;
44048;SDS011;29717;47.028;15.470;2023-08-17T00:03:58;13.05;;;11.85;;
44048;SDS011;29717;47.028;15.470;2023-08-17T00:06:25;15.10;;;11.43;;
44048;SDS011;29717;47.028;15.470;2023-08-17T00:08:51;12.90;;;11.52;;
44048;SDS011;29717;47.028;15.470;2023-08-17T00:11:18;12.57;;;11.27;;
44048;SDS011;29717;47.028;15.470;2023-08-17T00:13:44;12.00;;;10.85;;
44048;SDS011;29717;47.028;15.470;2023-08-17T00:16:11;11.93;;;10.80;;
44048;SDS011;29717;47.028;15.470;2023-08-17T00:18:38;12.52;;;10.55;;
44048;SDS011;29717;47.028;15.470;2023-08-17T00:21:06;11.27;;;10.32;;
44048;SDS011;29717;47.028;15.470;2023-08-17T00:23:33;11.15;;;10.15;;
44048;SDS011;29717;47.028;15.470;2023-08-17T00:26:00;11.00;;;10.10;;
44048;SDS011;29717;47.028;15.470;2023-08-17T00:28:27;10.98;;;9.98;;
44048;SDS011;29717;47.028;15.470;2023-08-17T00:30:53;11.85;;;10.70;;
44048;SDS011;29717;47.028;15.470;2023-08-17T00:33:20;11.25;;;10.05;;
44048;SDS011;29717;47.028;15.470;2023-08-17T00:35:47;11.82;;;10.73;;
44048;SDS011;29717;47.028;15.470;2023-08-17T00:38:15;12.40;;;11.20;;
44048;SDS011;29717;47.028;15.470;2023-08-17T00:40:41;13.80;;;11.43;;
44048;SDS011;29717;47.028;15.470;2023-08-17T00:43:09;12.32;;;11.13;;
44048;SDS011;29717;47.028;15.470;2023-08-17T00:45:35;11.82;;;10.63;;
44048;SDS011;29717;47.028;15.470;2023-08-17T00:48:02;12.82;;;11.50;;
44048;SDS011;29717;47.028;15.470;2023-08-17T00:50:30;11.85;;;10.65;;
44048;SDS011;29717;47.028;15.470;2023-08-17T00:52:57;11.73;;;10.57;;
44048;SDS011;29717;47.028;15.470;2023-08-17T00:55:25;12.32;;;10.55;;
44048;SDS011;29717;47.028;15.470;2023-08-17T00:57:53;12.20;;;11.00;;
44048;SDS011;29717;47.028;15.470;2023-08-17T01:00:20;14.18;;;12.05;;
44048;SDS011;29717;47.028;15.470;2023-08-17T01:02:47;14.18;;;12.77;;
44048;SDS011;29717;47.028;15.470;2023-08-17T01:05:14;13.32;;;12.13;;
44048;SDS011;29717;47.028;15.470;2023-08-17T01:07:40;14.43;;;12.93;;
44048;SDS011;29717;47.028;15.470;2023-08-17T01:10:07;14.10;;;12.50;;
44048;SDS011;29717;47.028;15.470;2023-08-17T01:12:38;12.65;;;11.43;;
44048;SDS011;29717;47.028;15.470;2023-08-17T01:15:08;13.75;;;12.38;;
44048;SDS011;29717;47.028;15.470;2023-08-17T01:17:37;14.02;;;11.27;;
44048;SDS011;29717;47.028;15.470;2023-08-17T01:20:07;14.05;;;11.30;;
44048;SDS011;29717;47.028;15.470;2023-08-17T01:22:37;13.48;;;12.07;;
44048;SDS011;29717;47.028;15.470;2023-08-17T01:25:09;12.55;;;11.35;;
44048;SDS011;29717;47.028;15.470;2023-08-17T01:27:43;14.07;;;11.20;;
44048;SDS011;29717;47.028;15.470;2023-08-17T01:30:11;12.30;;;11.25;;
44048;SDS011;29717;47.028;15.470;2023-08-17T01:32:41;13.38;;;12.15;;
44048;SDS011;29717;47.028;15.470;2023-08-17T01:35:11;13.18;;;11.80;;
44048;SDS011;29717;47.028;15.470;2023-08-17T01:37:41;12.85;;;11.63;;
44048;SDS011;29717;47.028;15.470;2023-08-17T01:40:10;13.05;;;11.68;;
44048;SDS011;29717;47.028;15.470;2023-08-17T01:42:39;12.30;;;11.10;;
44048;SDS011;29717;47.028;15.470;2023-08-17T01:45:07;11.95;;;10.70;;
44048;SDS011;29717;47.028;15.470;2023-08-17T01:47:35;12.18;;;10.60;;
44048;SDS011;29717;47.028;15.470;2023-08-17T01:50:01;15.73;;;12.25;;
44048;SDS011;29717;47.028;15.470;2023-08-17T01:52:28;14.52;;;13.13;;
44048;SDS011;29717;47.028;15.470;2023-08-17T01:54:55;14.85;;;13.45;;
44048;SDS011;29717;47.028;15.470;2023-08-17T01:57:23;14.18;;;12.57;;
44048;SDS011;29717;47.028;15.470;2023-08-17T01:59:49;16.25;;;12.95;;
44048;SDS011;29717;47.028;15.470;2023-08-17T02:02:16;14.20;;;12.80;;
44048;SDS011;29717;47.028;15.470;2023-08-17T02:04:43;13.30;;;12.00;;
44048;SDS011;29717;47.028;15.470;2023-08-17T02:07:09;13.50;;;12.23;;
44048;SDS011;29717;47.028;15.470;2023-08-17T02:09:36;13.48;;;12.18;;
44048;SDS011;29717;47.028;15.470;2023-08-17T02:12:03;15.40;;;13.15;;
44048;SDS011;29717;47.028;15.470;2023-08-17T02:14:31;12.80;;;11.70;;
44048;SDS011;29717;47.028;15.470;2023-08-17T02:16:58;13.13;;;11.95;;
44048;SDS011;29717;47.028;15.470;2023-08-17T02:19:24;13.32;;;11.73;;
44048;SDS011;29717;47.028;15.470;2023-08-17T02:21:51;13.10;;;11.85;;
44048;SDS011;29717;47.028;15.470;2023-08-17T02:24:18;16.98;;;12.73;;
44048;SDS011;29717;47.028;15.470;2023-08-17T02:26:44;15.90;;;11.75;;
44048;SDS011;29717;47.028;15.470;2023-08-17T02:29:11;13.95;;;12.20;;
44048;SDS011;29717;47.028;15.470;2023-08-17T02:31:39;16.80;;;13.25;;
44048;SDS011;29717;47.028;15.470;2023-08-17T02:34:06;14.30;;;12.90;;
44048;SDS011;29717;47.028;15.470;2023-08-17T02:36:33;18.75;;;12.80;;
44048;SDS011;29717;47.028;15.470;2023-08-17T02:38:59;13.38;;;12.07;;
44048;SDS011;29717;47.028;15.470;2023-08-17T02:41:26;15.55;;;13.57;;
44048;SDS011;29717;47.028;15.470;2023-08-17T02:43:53;15.82;;;14.20;;
44048;SDS011;29717;47.028;15.470;2023-08-17T02:46:19;13.90;;;12.40;;
44048;SDS011;29717;47.028;15.470;2023-08-17T02:48:47;14.23;;;12.73;;
44048;SDS011;29717;47.028;15.470;2023-08-17T02:51:15;13.60;;;12.40;;
44048;SDS011;29717;47.028;15.470;2023-08-17T02:53:41;13.98;;;12.70;;
44048;SDS011;29717;47.028;15.470;2023-08-17T02:56:08;14.85;;;12.35;;
44048;SDS011;29717;47.028;15.470;2023-08-17T02:58:37;12.43;;;11.32;;
44048;SDS011;29717;47.028;15.470;2023-08-17T03:01:05;12.95;;;11.75;;
44048;SDS011;29717;47.028;15.470;2023-08-17T03:03:32;13.20;;;12.10;;
44048;SDS011;29717;47.028;15.470;2023-08-17T03:06:00;13.10;;;11.52;;
44048;SDS011;29717;47.028;15.470;2023-08-17T03:08:27;13.77;;;11.77;;
44048;SDS011;29717;47.028;15.470;2023-08-17T03:10:54;14.00;;;12.60;;
44048;SDS011;29717;47.028;15.470;2023-08-17T03:13:21;12.13;;;11.13;;
44048;SDS011;29717;47.028;15.470;2023-08-17T03:15:47;13.40;;;12.23;;
44048;SDS011;29717;47.028;15.470;2023-08-17T03:18:14;13.70;;;12.40;;
44048;SDS011;29717;47.028;15.470;2023-08-17T03:20:41;16.58;;;13.52;;
44048;SDS011;29717;47.028;15.470;2023-08-17T03:23:09;17.38;;;13.40;;
44048;SDS011;29717;47.028;15.470;2023-08-17T03:25:35;14.93;;;13.48;;
44048;SDS011;29717;47.028;15.470;2023-08-17T03:28:01;15.07;;;13.77;;
44048;SDS011;29717;47.028;15.470;2023-08-17T03:30:28;14.23;;;12.93;;
44048;SDS011;29717;47.028;15.470;2023-08-17T03:32:54;13.50;;;12.13;;
44048;SDS011;29717;47.028;15.470;2023-08-17T03:35:21;17.02;;;12.48;;
44048;SDS011;29717;47.028;15.470;2023-08-17T03:37:48;15.95;;;13.55;;
44048;SDS011;29717;47.028;15.470;2023-08-17T03:40:16;14.00;;;12.60;;
44048;SDS011;29717;47.028;15.470;2023-08-17T03:42:43;17.77;;;13.90;;
44048;SDS011;29717;47.028;15.470;2023-08-17T03:45:09;16.35;;;13.82;;
44048;SDS011;29717;47.028;15.470;2023-08-17T03:47:36;13.52;;;12.27;;
44048;SDS011;29717;47.028;15.470;2023-08-17T03:50:03;13.38;;;11.75;;
44048;SDS011;29717;47.028;15.470;2023-08-17T03:52:29;13.40;;;12.10;;
44048;SDS011;29717;47.028;15.470;2023-08-17T03:54:56;13.57;;;12.40;;
44048;SDS011;29717;47.028;15.470;2023-08-17T03:57:24;13.15;;;11.75;;
44048;SDS011;29717;47.028;15.470;2023-08-17T03:59:51;13.80;;;12.40;;
44048;SDS011;29717;47.028;15.470;2023-08-17T04:02:17;16.42;;;13.55;;
44048;SDS011;29717;47.028;15.470;2023-08-17T04:04:44;15.18;;;13.63;;
44048;SDS011;29717;47.028;15.470;2023-08-17T04:07:11;15.98;;;13.23;;
44048;SDS011;29717;47.028;15.470;2023-08-17T04:09:37;17.88;;;13.60;;
44048;SDS011;29717;47.028;15.470;2023-08-17T04:12:04;13.40;;;12.10;;
44048;SDS011;29717;47.028;15.470;2023-08-17T04:14:32;14.43;;;12.05;;
44048;SDS011;29717;47.028;15.470;2023-08-17T04:16:59;12.35;;;11.05;;
44048;SDS011;29717;47.028;15.470;2023-08-17T04:19:25;12.48;;;11.38;;
44048;SDS011;29717;47.028;15.470;2023-08-17T04:21:52;15.15;;;11.30;;
44048;SDS011;29717;47.028;15.470;2023-08-17T04:24:19;13.88;;;12.60;;
44048;SDS011;29717;47.028;15.470;2023-08-17T04:26:45;14.20;;;12.88;;
44048;SDS011;29717;47.028;15.470;2023-08-17T04:29:12;14.73;;;13.18;;
44048;SDS011;29717;47.028;15.470;2023-08-17T04:31:40;14.25;;;12.75;;
44048;SDS011;29717;47.028;15.470;2023-08-17T04:34:07;23.27;;;13.00;;
44048;SDS011;29717;47.028;15.470;2023-08-17T04:36:34;13.82;;;10.88;;
44048;SDS011;29717;47.028;15.470;2023-08-17T04:39:00;16.90;;;12.80;;
44048;SDS011;29717;47.028;15.470;2023-08-17T04:41:27;19.38;;;12.35;;
44048;SDS011;29717;47.028;15.470;2023-08-17T04:43:54;12.45;;;11.38;;
44048;SDS011;29717;47.028;15.470;2023-08-17T04:46:20;12.15;;;10.80;;
44048;SDS011;29717;47.028;15.470;2023-08-17T04:48:48;11.40;;;10.40;;
44048;SDS011;29717;47.028;15.470;2023-08-17T04:51:15;11.55;;;10.55;;
44048;SDS011;29717;47.028;15.470;2023-08-17T04:53:42;14.38;;;11.70;;
44048;SDS011;29717;47.028;15.470;2023-08-17T04:56:09;14.05;;;10.75;;
44048;SDS011;29717;47.028;15.470;2023-08-17T04:58:36;13.35;;;10.75;;
44048;SDS011;29717;47.028;15.470;2023-08-17T05:01:02;11.77;;;10.57;;
44048;SDS011;29717;47.028;15.470;2023-08-17T05:03:29;12.23;;;11.02;;
44048;SDS011;29717;47.028;15.470;2023-08-17T05:05:57;12.30;;;11.20;;
44048;SDS011;29717;47.028;15.470;2023-08-17T05:08:24;11.27;;;10.15;;
44048;SDS011;29717;47.028;15.470;2023-08-17T05:10:51;12.43;;;11.35;;
44048;SDS011;29717;47.028;15.470;2023-08-17T05:13:17;12.52;;;11.43;;
44048;SDS011;29717;47.028;15.470;2023-08-17T05:15:44;13.23;;;11.85;;
44048;SDS011;29717;47.028;15.470;2023-08-17T05:18:11;12.98;;;11.77;;
44048;SDS011;29717;47.028;15.470;2023-08-17T05:20:37;14.85;;;13.35;;
44048;SDS011;29717;47.028;15.470;2023-08-17T05:23:05;13.25;;;11.98;;
44048;SDS011;29717;47.028;15.470;2023-08-17T05:25:33;13.30;;;10.80;;
44048;SDS011;29717;47.028;15.470;2023-08-17T05:28:00;13.05;;;11.60;;
44048;SDS011;29717;47.028;15.470;2023-08-17T05:30:26;14.45;;;11.52;;
44048;SDS011;29717;47.028;15.470;2023-08-17T05:32:53;13.60;;;12.23;;
44048;SDS011;29717;47.028;15.470;2023-08-17T05:35:20;14.30;;;12.85;;
44048;SDS011;29717;47.028;15.470;2023-08-17T05:37:46;14.73;;;13.27;;
44048;SDS011;29717;47.028;15.470;2023-08-17T05:40:14;14.45;;;13.07;;
44048;SDS011;29717;47.028;15.470;2023-08-17T05:42:41;16.10;;;12.35;;
44048;SDS011;29717;47.028;15.470;2023-08-17T05:45:08;14.80;;;12.57;;
44048;SDS011;29717;47.028;15.470;2023-08-17T05:47:35;14.27;;;12.85;;
44048;SDS011;29717;47.028;15.470;2023-08-17T05:50:02;14.60;;;12.32;;
44048;SDS011;29717;47.028;15.470;2023-08-17T05:52:28;15.85;;;13.73;;
44048;SDS011;29717;47.028;15.470;2023-08-17T05:54:55;13.98;;;12.68;;
44048;SDS011;29717;47.028;15.470;2023-08-17T05:57:23;14.30;;;12.90;;
44048;SDS011;29717;47.028;15.470;2023-08-17T05:59:50;14.18;;;12.55;;
44048;SDS011;29717;47.028;15.470;2023-08-17T06:02:16;14.18;;;12.57;;
44048;SDS011;29717;47.028;15.470;2023-08-17T06:04:43;12.88;;;11.75;;
44048;SDS011;29717;47.028;15.470;2023-08-17T06:07:10;14.27;;;12.98;;
44048;SDS011;29717;47.028;15.470;2023-08-17T06:09:36;14.15;;;12.70;;
44048;SDS011;29717;47.028;15.470;2023-08-17T06:12:03;13.90;;;12.75;;
44048;SDS011;29717;47.028;15.470;2023-08-17T06:14:32;13.93;;;12.52;;
44048;SDS011;29717;47.028;15.470;2023-08-17T06:16:59;14.65;;;13.23;;
44048;SDS011;29717;47.028;15.470;2023-08-17T06:19:26;13.88;;;12.48;;
44048;SDS011;29717;47.028;15.470;2023-08-17T06:21:52;13.57;;;12.40;;
44048;SDS011;29717;47.028;15.470;2023-08-17T06:24:19;13.38;;;12.00;;
44048;SDS011;29717;47.028;15.470;2023-08-17T06:26:47;13.18;;;11.95;;
44048;SDS011;29717;47.028;15.470;2023-08-17T06:29:13;13.07;;;11.73;;
44048;SDS011;29717;47.028;15.470;2023-08-17T06:31:41;13.93;;;12.63;;
44048;SDS011;29717;47.028;15.470;2023-08-17T06:34:08;13.45;;;11.90;;
44048;SDS011;29717;47.028;15.470;2023-08-17T06:36:37;13.25;;;11.98;;
44048;SDS011;29717;47.028;15.470;2023-08-17T06:39:04;14.05;;;12.73;;
44048;SDS011;29717;47.028;15.470;2023-08-17T06:41:31;12.82;;;11.50;;
44048;SDS011;29717;47.028;15.470;2023-08-17T06:43:58;11.93;;;10.82;;
44048;SDS011;29717;47.028;15.470;2023-08-17T06:46:25;13.60;;;11.23;;
44048;SDS011;29717;47.028;15.470;2023-08-17T06:48:54;12.48;;;11.10;;
44048;SDS011;29717;47.028;15.470;2023-08-17T06:51:21;11.60;;;10.60;;
44048;SDS011;29717;47.028;15.470;2023-08-17T06:53:47;10.80;;;9.90;;
44048;SDS011;29717;47.028;15.470;2023-08-17T06:56:14;11.68;;;9.90;;
44048;SDS011;29717;47.028;15.470;2023-08-17T06:58:41;11.63;;;10.43;;
44048;SDS011;29717;47.028;15.470;2023-08-17T07:01:07;12.35;;;9.73;;
44048;SDS011;29717;47.028;15.470;2023-08-17T07:03:34;10.63;;;9.48;;
44048;SDS011;29717;47.028;15.470;2023-08-17T07:06:03;10.18;;;9.23;;
44048;SDS011;29717;47.028;15.470;2023-08-17T07:08:29;10.45;;;9.43;;
44048;SDS011;29717;47.028;15.470;2023-08-17T07:10:58;10.23;;;8.35;;
44048;SDS011;29717;47.028;15.470;2023-08-17T07:13:24;9.20;;;8.30;;
44048;SDS011;29717;47.028;15.470;2023-08-17T07:15:51;11.10;;;8.50;;
44048;SDS011;29717;47.028;15.470;2023-08-17T07:18:18;8.98;;;8.02;;
44048;SDS011;29717;47.028;15.470;2023-08-17T07:20:44;9.82;;;7.95;;
44048;SDS011;29717;47.028;15.470;2023-08-17T07:23:12;7.88;;;6.82;;
44048;SDS011;29717;47.028;15.470;2023-08-17T07:25:39;7.72;;;6.85;;
44048;SDS011;29717;47.028;15.470;2023-08-17T07:28:06;7.40;;;6.47;;
44048;SDS011;29717;47.028;15.470;2023-08-17T07:30:32;9.50;;;7.10;;
44048;SDS011;29717;47.028;15.470;2023-08-17T07:32:59;8.52;;;7.05;;
44048;SDS011;29717;47.028;15.470;2023-08-17T07:35:26;6.90;;;6.30;;
44048;SDS011;29717;47.028;15.470;2023-08-17T07:37:52;5.85;;;5.43;;
44048;SDS011;29717;47.028;15.470;2023-08-17T07:40:21;6.15;;;5.55;;
44048;SDS011;29717;47.028;15.470;2023-08-17T07:42:47;5.57;;;5.13;;
44048;SDS011;29717;47.028;15.470;2023-08-17T07:45:14;5.43;;;4.90;;
44048;SDS011;29717;47.028;15.470;2023-08-17T07:47:41;5.43;;;4.93;;
44048;SDS011;29717;47.028;15.470;2023-08-17T07:50:08;7.72;;;4.45;;
44048;SDS011;29717;47.028;15.470;2023-08-17T07:52:34;5.25;;;4.75;;
44048;SDS011;29717;47.028;15.470;2023-08-17T07:55:01;4.90;;;4.40;;
44048;SDS011;29717;47.028;15.470;2023-08-17T07:57:30;5.25;;;4.07;;
44048;SDS011;29717;47.028;15.470;2023-08-17T07:59:56;4.88;;;4.40;;
44048;SDS011;29717;47.028;15.470;2023-08-17T08:02:23;5.47;;;4.10;;
44048;SDS011;29717;47.028;15.470;2023-08-17T08:04:50;4.20;;;3.70;;
44048;SDS011;29717;47.028;15.470;2023-08-17T08:07:16;4.03;;;3.70;;
44048;SDS011;29717;47.028;15.470;2023-08-17T08:09:43;6.28;;;4.07;;
44048;SDS011;29717;47.028;15.470;2023-08-17T08:12:10;4.75;;;4.05;;
44048;SDS011;29717;47.028;15.470;2023-08-17T08:14:38;5.40;;;4.25;;
44048;SDS011;29717;47.028;15.470;2023-08-17T08:17:04;4.38;;;3.97;;
44048;SDS011;29717;47.028;15.470;2023-08-17T08:19:31;3.70;;;3.40;;
44048;SDS011;29717;47.028;15.470;2023-08-17T08:21:58;4.95;;;3.97;;
44048;SDS011;29717;47.028;15.470;2023-08-17T08:27:16;4.72;;;3.88;;
44048;SDS011;29717;47.028;15.470;2023-08-17T08:29:45;6.05;;;3.50;;
44048;SDS011;29717;47.028;15.470;2023-08-17T08:32:11;4.35;;;3.45;;
44048;SDS011;29717;47.028;15.470;2023-08-17T08:34:38;3.90;;;3.60;;
44048;SDS011;29717;47.028;15.470;2023-08-17T08:37:05;4.00;;;3.67;;
44048;SDS011;29717;47.028;15.470;2023-08-17T08:39:32;4.15;;;3.85;;
44048;SDS011;29717;47.028;15.470;2023-08-17T08:41:58;5.35;;;3.50;;
44048;SDS011;29717;47.028;15.470;2023-08-17T08:44:25;3.95;;;3.65;;
44048;SDS011;29717;47.028;15.470;2023-08-17T08:46:54;5.10;;;3.53;;
44048;SDS011;29717;47.028;15.470;2023-08-17T08:49:23;3.80;;;3.50;;
44048;SDS011;29717;47.028;15.470;2023-08-17T08:51:50;3.47;;;3.17;;
44048;SDS011;29717;47.028;15.470;2023-08-17T08:54:20;5.10;;;3.22;;
44048;SDS011;29717;47.028;15.470;2023-08-17T08:56:47;3.70;;;3.33;;
44048;SDS011;29717;47.028;15.470;2023-08-17T08:59:16;4.15;;;3.25;;
44048;SDS011;29717;47.028;15.470;2023-08-17T09:01:43;3.38;;;2.95;;
44048;SDS011;29717;47.028;15.470;2023-08-17T09:04:11;4.63;;;3.42;;
44048;SDS011;29717;47.028;15.470;2023-08-17T09:06:38;3.65;;;3.30;;
44048;SDS011;29717;47.028;15.470;2023-08-17T09:09:04;3.38;;;3.08;;
44048;SDS011;29717;47.028;15.470;2023-08-17T09:11:32;3.17;;;2.92;;
44048;SDS011;29717;47.028;15.470;2023-08-17T09:13:58;3.78;;;3.00;;
44048;SDS011;29717;47.028;15.470;2023-08-17T09:16:25;4.55;;;3.50;;
44048;SDS011;29717;47.028;15.470;2023-08-17T09:18:54;4.57;;;3.38;;
44048;SDS011;29717;47.028;15.470;2023-08-17T09:21:23;3.30;;;3.00;;
44048;SDS011;29717;47.028;15.470;2023-08-17T09:23:50;4.78;;;3.28;;
44048;SDS011;29717;47.028;15.470;2023-08-17T09:26:17;5.97;;;3.42;;
44048;SDS011;29717;47.028;15.470;2023-08-17T09:28:45;5.18;;;3.05;;
44048;SDS011;29717;47.028;15.470;2023-08-17T09:31:11;4.75;;;3.53;;
44048;SDS011;29717;47.028;15.470;2023-08-17T09:33:39;3.33;;;3.03;;
44048;SDS011;29717;47.028;15.470;2023-08-17T09:36:05;3.45;;;3.10;;
44048;SDS011;29717;47.028;15.470;2023-08-17T09:38:33;3.25;;;3.00;;
44048;SDS011;29717;47.028;15.470;2023-08-17T09:41:00;6.85;;;3.25;;
44048;SDS011;29717;47.028;15.470;2023-08-17T09:43:27;4.40;;;3.45;;
44048;SDS011;29717;47.028;15.470;2023-08-17T09:45:56;3.47;;;3.13;;
44048;SDS011;29717;47.028;15.470;2023-08-17T09:48:22;4.82;;;3.38;;
44048;SDS011;29717;47.028;15.470;2023-08-17T09:50:51;3.80;;;3.30;;
44048;SDS011;29717;47.028;15.470;2023-08-17T09:53:18;3.90;;;3.17;;
44048;SDS011;29717;47.028;15.470;2023-08-17T09:55:46;3.03;;;2.83;;
44048;SDS011;29717;47.028;15.470;2023-08-17T09:58:13;3.38;;;3.08;;
44048;SDS011;29717;47.028;15.470;2023-08-17T10:00:41;7.75;;;3.30;;
44048;SDS011;29717;47.028;15.470;2023-08-17T10:03:09;5.25;;;2.97;;
44048;SDS011;29717;47.028;15.470;2023-08-17T10:05:38;3.97;;;2.88;;
44048;SDS011;29717;47.028;15.470;2023-08-17T10:08:04;3.70;;;2.70;;
44048;SDS011;29717;47.028;15.470;2023-08-17T10:10:34;3.30;;;3.00;;
44048;SDS011;29717;47.028;15.470;2023-08-17T10:13:04;4.22;;;3.08;;
44048;SDS011;29717;47.028;15.470;2023-08-17T10:15:34;2.97;;;2.78;;
44048;SDS011;29717;47.028;15.470;2023-08-17T10:18:06;3.97;;;2.92;;
44048;SDS011;29717;47.028;15.470;2023-08-17T10:20:35;5.15;;;3.05;;
44048;SDS011;29717;47.028;15.470;2023-08-17T10:23:06;3.75;;;3.13;;
44048;SDS011;29717;47.028;15.470;2023-08-17T10:25:34;3.22;;;2.92;;
44048;SDS011;29717;47.028;15.470;2023-08-17T10:28:01;3.90;;;3.15;;
44048;SDS011;29717;47.028;15.470;2023-08-17T10:30:30;5.00;;;3.25;;
44048;SDS011;29717;47.028;15.470;2023-08-17T10:32:57;3.95;;;3.47;;
44048;SDS011;29717;47.028;15.470;2023-08-17T10:35:24;3.00;;;2.75;;
44048;SDS011;29717;47.028;15.470;2023-08-17T10:37:52;4.28;;;3.25;;
44048;SDS011;29717;47.028;15.470;2023-08-17T10:40:25;3.67;;;3.38;;
44048;SDS011;29717;47.028;15.470;2023-08-17T10:42:53;4.18;;;3.05;;
44048;SDS011;29717;47.028;15.470;2023-08-17T10:45:27;4.82;;;3.40;;
44048;SDS011;29717;47.028;15.470;2023-08-17T10:50:41;5.38;;;3.17;;
44048;SDS011;29717;47.028;15.470;2023-08-17T10:53:24;3.92;;;3.17;;
44048;SDS011;29717;47.028;15.470;2023-08-17T10:55:51;3.88;;;2.70;;
44048;SDS011;29717;47.028;15.470;2023-08-17T10:58:23;5.85;;;3.22;;
44048;SDS011;29717;47.028;15.470;2023-08-17T11:00:53;4.47;;;3.15;;
44048;SDS011;29717;47.028;15.470;2023-08-17T11:03:21;4.28;;;3.30;;
44048;SDS011;29717;47.028;15.470;2023-08-17T11:05:50;3.20;;;2.90;;
44048;SDS011;29717;47.028;15.470;2023-08-17T11:08:22;3.70;;;3.38;;
44048;SDS011;29717;47.028;15.470;2023-08-17T11:10:56;3.88;;;3.55;;
44048;SDS011;29717;47.028;15.470;2023-08-17T11:13:24;4.28;;;3.92;;
44048;SDS011;29717;47.028;15.470;2023-08-17T11:15:50;4.07;;;3.63;;
44048;SDS011;29717;47.028;15.470;2023-08-17T11:18:17;4.00;;;3.60;;
44048;SDS011;29717;47.028;15.470;2023-08-17T11:20:44;12.57;;;4.22;;
44048;SDS011;29717;47.028;15.470;2023-08-17T11:23:13;4.63;;;4.00;;
44048;SDS011;29717;47.028;15.470;2023-08-17T11:25:40;4.72;;;4.00;;
44048;SDS011;29717;47.028;15.470;2023-08-17T11:28:08;4.72;;;4.20;;
44048;SDS011;29717;47.028;15.470;2023-08-17T11:30:35;5.88;;;4.25;;
44048;SDS011;29717;47.028;15.470;2023-08-17T11:33:04;6.47;;;4.63;;
44048;SDS011;29717;47.028;15.470;2023-08-17T11:35:31;5.10;;;3.83;;
44048;SDS011;29717;47.028;15.470;2023-08-17T11:37:57;5.18;;;3.20;;
44048;SDS011;29717;47.028;15.470;2023-08-17T11:40:26;3.78;;;3.40;;
44048;SDS011;29717;47.028;15.470;2023-08-17T11:42:53;3.55;;;3.25;;
44048;SDS011;29717;47.028;15.470;2023-08-17T11:45:20;3.53;;;3.22;;
44048;SDS011;29717;47.028;15.470;2023-08-17T11:47:47;3.60;;;3.30;;
44048;SDS011;29717;47.028;15.470;2023-08-17T11:50:14;3.65;;;3.35;;
44048;SDS011;29717;47.028;15.470;2023-08-17T11:52:41;4.43;;;3.15;;
44048;SDS011;29717;47.028;15.470;2023-08-17T11:55:08;3.00;;;2.70;;
44048;SDS011;29717;47.028;15.470;2023-08-17T11:57:36;4.35;;;2.70;;
44048;SDS011;29717;47.028;15.470;2023-08-17T12:00:04;3.85;;;3.03;;
44048;SDS011;29717;47.028;15.470;2023-08-17T12:02:34;3.78;;;2.78;;
44048;SDS011;29717;47.028;15.470;2023-08-17T12:05:07;3.00;;;2.80;;
44048;SDS011;29717;47.028;15.470;2023-08-17T12:07:34;3.28;;;2.97;;
44048;SDS011;29717;47.028;15.470;2023-08-17T12:10:02;4.75;;;3.13;;
44048;SDS011;29717;47.028;15.470;2023-08-17T12:12:29;6.25;;;3.03;;
44048;SDS011;29717;47.028;15.470;2023-08-17T12:14:58;5.82;;;2.88;;
44048;SDS011;29717;47.028;15.470;2023-08-17T12:17:25;3.10;;;2.67;;
44048;SDS011;29717;47.028;15.470;2023-08-17T12:19:54;2.90;;;2.70;;
44048;SDS011;29717;47.028;15.470;2023-08-17T12:22:23;4.95;;;3.15;;
44048;SDS011;29717;47.028;15.470;2023-08-17T12:24:50;4.30;;;2.90;;
44048;SDS011;29717;47.028;15.470;2023-08-17T12:27:16;3.28;;;2.97;;
44048;SDS011;29717;47.028;15.470;2023-08-17T12:29:46;4.43;;;3.08;;
44048;SDS011;29717;47.028;15.470;2023-08-17T12:32:15;2.97;;;2.78;;
44048;SDS011;29717;47.028;15.470;2023-08-17T12:34:42;5.75;;;3.33;;
44048;SDS011;29717;47.028;15.470;2023-08-17T12:37:09;4.18;;;3.03;;
44048;SDS011;29717;47.028;15.470;2023-08-17T12:39:36;3.35;;;3.05;;
44048;SDS011;29717;47.028;15.470;2023-08-17T12:42:03;3.28;;;2.95;;
44048;SDS011;29717;47.028;15.470;2023-08-17T12:44:29;3.63;;;2.95;;
44048;SDS011;29717;47.028;15.470;2023-08-17T12:46:56;2.78;;;2.58;;
44048;SDS011;29717;47.028;15.470;2023-08-17T12:49:24;3.00;;;2.80;;
44048;SDS011;29717;47.028;15.470;2023-08-17T12:51:51;3.58;;;2.92;;
44048;SDS011;29717;47.028;15.470;2023-08-17T12:54:18;2.85;;;2.60;;
44048;SDS011;29717;47.028;15.470;2023-08-17T12:56:45;2.88;;;2.58;;
44048;SDS011;29717;47.028;15.470;2023-08-17T12:59:11;3.70;;;3.15;;
44048;SDS011;29717;47.028;15.470;2023-08-17T13:01:38;3.92;;;3.28;;
44048;SDS011;29717;47.028;15.470;2023-08-17T13:04:05;4.45;;;2.90;;
44048;SDS011;29717;47.028;15.470;2023-08-17T13:06:33;2.92;;;2.72;;
44048;SDS011;29717;47.028;15.470;2023-08-17T13:09:00;3.22;;;2.92;;
44048;SDS011;29717;47.028;15.470;2023-08-17T13:11:27;4.72;;;3.33;;
44048;SDS011;29717;47.028;15.470;2023-08-17T13:13:53;4.60;;;3.40;;
44048;SDS011;29717;47.028;15.470;2023-08-17T13:16:20;3.20;;;2.67;;
44048;SDS011;29717;47.028;15.470;2023-08-17T13:18:48;5.40;;;3.00;;
44048;SDS011;29717;47.028;15.470;2023-08-17T13:21:16;4.05;;;3.00;;
44048;SDS011;29717;47.028;15.470;2023-08-17T13:23:45;5.97;;;3.45;;
44048;SDS011;29717;47.028;15.470;2023-08-17T13:26:11;4.50;;;2.92;;
44048;SDS011;29717;47.028;15.470;2023-08-17T13:28:38;4.32;;;3.10;;
44048;SDS011;29717;47.028;15.470;2023-08-17T13:31:04;4.25;;;3.28;;
44048;SDS011;29717;47.028;15.470;2023-08-17T13:33:31;4.00;;;3.20;;
44048;SDS011;29717;47.028;15.470;2023-08-17T13:35:58;4.63;;;3.80;;
44048;SDS011;29717;47.028;15.470;2023-08-17T13:38:25;6.05;;;3.40;;
44048;SDS011;29717;47.028;15.470;2023-08-17T13:40:53;3.47;;;3.17;;
44048;SDS011;29717;47.028;15.470;2023-08-17T13:43:19;4.10;;;3.22;;
44048;SDS011;29717;47.028;15.470;2023-08-17T13:45:46;4.65;;;3.22;;
44048;SDS011;29717;47.028;15.470;2023-08-17T13:48:13;3.05;;;2.72;;
44048;SDS011;29717;47.028;15.470;2023-08-17T13:50:39;4.22;;;3.03;;
44048;SDS011;29717;47.028;15.470;2023-08-17T13:53:06;3.75;;;3.35;;
44048;SDS011;29717;47.028;15.470;2023-08-17T13:55:32;3.35;;;3.00;;
44048;SDS011;29717;47.028;15.470;2023-08-17T13:58:00;3.75;;;3.20;;
44048;SDS011;29717;47.028;15.470;2023-08-17T14:00:27;4.07;;;3.30;;
44048;SDS011;29717;47.028;15.470;2023-08-17T14:02:54;3.78;;;3.40;;
44048;SDS011;29717;47.028;15.470;2023-08-17T14:05:21;3.60;;;3.35;;
44048;SDS011;29717;47.028;15.470;2023-08-17T14:07:47;5.32;;;3.60;;
44048;SDS011;29717;47.028;15.470;2023-08-17T14:10:14;4.07;;;3.55;;
44048;SDS011;29717;47.028;15.470;2023-08-17T14:12:41;4.32;;;3.53;;
44048;SDS011;29717;47.028;15.470;2023-08-17T14:15:09;4.03;;;3.63;;
44048;SDS011;29717;47.028;15.470;2023-08-17T14:17:36;4.57;;;3.38;;
44048;SDS011;29717;47.028;15.470;2023-08-17T14:20:03;3.88;;;3.45;;
44048;SDS011;29717;47.028;15.470;2023-08-17T14:22:30;3.75;;;3.45;;
44048;SDS011;29717;47.028;15.470;2023-08-17T14:24:57;4.80;;;3.88;;
44048;SDS011;29717;47.028;15.470;2023-08-17T14:27:24;4.30;;;3.90;;